sensor_id;sensor_type;location;lat;lon;timestamp;pressure;altitude;pressure_sealevel;temperature;humidity
67545;BME280;54380;47.770;11.150;2023-03-20T00:00:28;95024.19;;;11.10;56.81
67545;BME280;54380;47.770;11.150;2023-03-20T00:02:57;95020.97;;;11.08;57.09
67545;BME280;54380;47.770;11.150;2023-03-20T00:05:25;95023.63;;;11.08;56.82
67545;BME280;54380;47.770;11.150;2023-03-20T00:07:53;95025.25;;;11.09;56.71
67545;BME280;54380;47.770;11.150;2023-03-20T00:10:21;95026.31;;;11.13;56.64
67545;BME280;54380;47.770;11.150;2023-03-20T00:12:52;95027.97;;;11.19;56.76
67545;BME280;54380;47.770;11.150;2023-03-20T00:15:26;95025.91;;;11.27;56.88
67545;BME280;54380;47.770;11.150;2023-03-20T00:17:54;95031.25;;;11.32;56.90
67545;BME280;54380;47.770;11.150;2023-03-20T00:20:21;95033.88;;;11.32;57.15
67545;BME280;54380;47.770;11.150;2023-03-20T00:22:49;95027.53;;;11.28;58.12
67545;BME280;54380;47.770;11.150;2023-03-20T00:25:19;95026.38;;;11.18;58.50
67545;BME280;54380;47.770;11.150;2023-03-20T00:27:47;95033.41;;;11.08;58.47
67545;BME280;54380;47.770;11.150;2023-03-20T00:30:23;95028.84;;;11.03;59.43
67545;BME280;54380;47.770;11.150;2023-03-20T00:32:51;95030.41;;;10.99;59.05
67545;BME280;54380;47.770;11.150;2023-03-20T00:35:22;95026.38;;;10.91;59.21
67545;BME280;54380;47.770;11.150;2023-03-20T00:37:51;95033.19;;;10.87;59.58
67545;BME280;54380;47.770;11.150;2023-03-20T00:40:18;95030.25;;;10.84;59.71
67545;BME280;54380;47.770;11.150;2023-03-20T00:42:47;95029.47;;;10.83;59.66
67545;BME280;54380;47.770;11.150;2023-03-20T00:45:19;95028.72;;;10.88;58.99
67545;BME280;54380;47.770;11.150;2023-03-20T00:47:49;95027.16;;;10.92;59.09
67545;BME280;54380;47.770;11.150;2023-03-20T00:50:19;95024.56;;;10.97;58.87
67545;BME280;54380;47.770;11.150;2023-03-20T00:52:47;95028.06;;;11.03;58.61
67545;BME280;54380;47.770;11.150;2023-03-20T00:55:16;95025.47;;;11.08;58.04
67545;BME280;54380;47.770;11.150;2023-03-20T00:57:45;95034.25;;;11.13;58.14
67545;BME280;54380;47.770;11.150;2023-03-20T01:00:23;95031.13;;;11.16;58.30
67545;BME280;54380;47.770;11.150;2023-03-20T01:02:53;95025.84;;;11.16;58.45
67545;BME280;54380;47.770;11.150;2023-03-20T01:05:23;95026.31;;;11.13;58.67
67545;BME280;54380;47.770;11.150;2023-03-20T01:07:52;95022.84;;;11.08;58.65
67545;BME280;54380;47.770;11.150;2023-03-20T01:10:22;95030.47;;;11.04;58.73
67545;BME280;54380;47.770;11.150;2023-03-20T01:12:53;95028.84;;;11.03;58.70
67545;BME280;54380;47.770;11.150;2023-03-20T01:15:27;95029.91;;;11.02;58.91
67545;BME280;54380;47.770;11.150;2023-03-20T01:17:58;95031.22;;;10.99;59.08
67545;BME280;54380;47.770;11.150;2023-03-20T01:20:28;95035.69;;;10.99;59.13
67545;BME280;54380;47.770;11.150;2023-03-20T01:22:56;95028.28;;;10.96;58.68
67545;BME280;54380;47.770;11.150;2023-03-20T01:25:23;95026.44;;;10.96;58.26
67545;BME280;54380;47.770;11.150;2023-03-20T01:27:52;95029.84;;;10.97;57.80
67545;BME280;54380;47.770;11.150;2023-03-20T01:30:23;95030.72;;;11.03;58.38
67545;BME280;54380;47.770;11.150;2023-03-20T01:32:50;95022.03;;;11.07;58.15
67545;BME280;54380;47.770;11.150;2023-03-20T01:35:20;95024.19;;;11.10;57.70
67545;BME280;54380;47.770;11.150;2023-03-20T01:37:47;95021.53;;;11.10;57.99
67545;BME280;54380;47.770;11.150;2023-03-20T01:40:32;95023.44;;;11.15;57.38
67545;BME280;54380;47.770;11.150;2023-03-20T01:43:12;95020.56;;;11.16;58.10
67545;BME280;54380;47.770;11.150;2023-03-20T01:45:49;95023.72;;;11.18;57.84
67545;BME280;54380;47.770;11.150;2023-03-20T01:48:19;95021.34;;;11.17;58.24
67545;BME280;54380;47.770;11.150;2023-03-20T01:50:47;95030.06;;;11.17;58.20
67545;BME280;54380;47.770;11.150;2023-03-20T01:53:18;95025.28;;;11.14;58.14
67545;BME280;54380;47.770;11.150;2023-03-20T01:55:53;95028.44;;;11.11;58.15
67545;BME280;54380;47.770;11.150;2023-03-20T01:58:29;95025.19;;;11.04;58.72
67545;BME280;54380;47.770;11.150;2023-03-20T02:00:58;95026.19;;;10.98;58.32
67545;BME280;54380;47.770;11.150;2023-03-20T02:03:26;95028.50;;;10.94;58.62
67545;BME280;54380;47.770;11.150;2023-03-20T02:05:56;95020.31;;;10.91;58.69
67545;BME280;54380;47.770;11.150;2023-03-20T02:08:28;95016.03;;;10.90;58.56
67545;BME280;54380;47.770;11.150;2023-03-20T02:11:01;95016.03;;;10.90;58.85
67545;BME280;54380;47.770;11.150;2023-03-20T02:13:30;95019.75;;;10.89;58.63
67545;BME280;54380;47.770;11.150;2023-03-20T02:16:02;95023.44;;;10.88;58.76
67545;BME280;54380;47.770;11.150;2023-03-20T02:18:49;95025.47;;;10.81;59.06
67545;BME280;54380;47.770;11.150;2023-03-20T02:27:22;95025.84;;;10.67;59.79
67545;BME280;54380;47.770;11.150;2023-03-20T02:33:30;95023.53;;;10.49;60.50
67545;BME280;54380;47.770;11.150;2023-03-20T02:39:42;95018.63;;;10.36;61.31
67545;BME280;54380;47.770;11.150;2023-03-20T02:42:15;95016.75;;;10.36;60.84
67545;BME280;54380;47.770;11.150;2023-03-20T02:44:50;95017.56;;;10.37;60.85
67545;BME280;54380;47.770;11.150;2023-03-20T02:47:22;95013.06;;;10.37;60.81
67545;BME280;54380;47.770;11.150;2023-03-20T02:49:56;95017.88;;;10.40;60.66
67545;BME280;54380;47.770;11.150;2023-03-20T02:52:32;95022.34;;;10.40;60.89
67545;BME280;54380;47.770;11.150;2023-03-20T02:55:09;95014.63;;;10.33;60.89
67545;BME280;54380;47.770;11.150;2023-03-20T02:57:47;95015.91;;;10.30;60.87
67545;BME280;54380;47.770;11.150;2023-03-20T03:00:23;95020.63;;;10.28;61.40
67545;BME280;54380;47.770;11.150;2023-03-20T03:02:58;95013.28;;;10.30;60.92
67545;BME280;54380;47.770;11.150;2023-03-20T03:05:29;95015.66;;;10.32;60.77
67545;BME280;54380;47.770;11.150;2023-03-20T03:08:01;95017.19;;;10.28;60.77
67545;BME280;54380;47.770;11.150;2023-03-20T03:10:35;95009.75;;;10.25;61.30
67545;BME280;54380;47.770;11.150;2023-03-20T03:13:08;95011.81;;;10.23;61.10
67545;BME280;54380;47.770;11.150;2023-03-20T03:15:38;95013.66;;;10.22;61.64
67545;BME280;54380;47.770;11.150;2023-03-20T03:18:12;95014.69;;;10.21;61.20
67545;BME280;54380;47.770;11.150;2023-03-20T03:20:41;95018.38;;;10.20;61.02
67545;BME280;54380;47.770;11.150;2023-03-20T03:23:17;95006.53;;;10.23;60.64
67545;BME280;54380;47.770;11.150;2023-03-20T03:25:46;95012.94;;;10.27;60.86
67545;BME280;54380;47.770;11.150;2023-03-20T03:28:22;95023.81;;;10.30;61.37
67545;BME280;54380;47.770;11.150;2023-03-20T03:30:53;95017.97;;;10.28;60.66
67545;BME280;54380;47.770;11.150;2023-03-20T03:33:22;95020.53;;;10.23;60.75
67545;BME280;54380;47.770;11.150;2023-03-20T03:35:50;95028.13;;;10.20;61.02
67545;BME280;54380;47.770;11.150;2023-03-20T03:38:27;95025.81;;;10.23;60.46
67545;BME280;54380;47.770;11.150;2023-03-20T03:41:09;95032.44;;;10.26;60.52
67545;BME280;54380;47.770;11.150;2023-03-20T03:43:46;95039.31;;;10.27;60.27
67545;BME280;54380;47.770;11.150;2023-03-20T03:46:21;95038.59;;;10.31;60.30
67545;BME280;54380;47.770;11.150;2023-03-20T03:48:54;95042.84;;;10.32;59.81
67545;BME280;54380;47.770;11.150;2023-03-20T03:51:24;95047.63;;;10.36;60.54
67545;BME280;54380;47.770;11.150;2023-03-20T03:54:05;95052.13;;;10.35;60.13
67545;BME280;54380;47.770;11.150;2023-03-20T03:56:36;95054.50;;;10.37;60.01
67545;BME280;54380;47.770;11.150;2023-03-20T03:59:09;95051.94;;;10.42;59.65
67545;BME280;54380;47.770;11.150;2023-03-20T04:01:38;95060.41;;;10.44;59.30
67545;BME280;54380;47.770;11.150;2023-03-20T04:04:12;95061.53;;;10.48;59.62
67545;BME280;54380;47.770;11.150;2023-03-20T04:06:40;95068.38;;;10.49;59.31
67545;BME280;54380;47.770;11.150;2023-03-20T04:09:08;95063.66;;;10.51;59.11
67545;BME280;54380;47.770;11.150;2023-03-20T04:11:36;95063.91;;;10.49;59.18
67545;BME280;54380;47.770;11.150;2023-03-20T04:14:03;95063.09;;;10.49;59.04
67545;BME280;54380;47.770;11.150;2023-03-20T04:16:30;95075.25;;;10.50;58.95
67545;BME280;54380;47.770;11.150;2023-03-20T04:18:56;95071.03;;;10.49;58.64
67545;BME280;54380;47.770;11.150;2023-03-20T04:21:23;95072.09;;;10.48;58.62
67545;BME280;54380;47.770;11.150;2023-03-20T04:23:51;95080.22;;;10.46;58.60
67545;BME280;54380;47.770;11.150;2023-03-20T04:26:20;95079.72;;;10.49;59.21
67545;BME280;54380;47.770;11.150;2023-03-20T04:28:50;95074.47;;;10.49;58.68
67545;BME280;54380;47.770;11.150;2023-03-20T04:31:32;95077.09;;;10.49;58.38
67545;BME280;54380;47.770;11.150;2023-03-20T04:34:16;95076.88;;;10.51;59.02
67545;BME280;54380;47.770;11.150;2023-03-20T04:36:57;95080.78;;;10.48;58.70
67545;BME280;54380;47.770;11.150;2023-03-20T04:39:37;95083.91;;;10.45;58.35
67545;BME280;54380;47.770;11.150;2023-03-20T04:42:05;95082.81;;;10.41;58.41
67545;BME280;54380;47.770;11.150;2023-03-20T04:44:33;95083.34;;;10.43;58.33
67545;BME280;54380;47.770;11.150;2023-03-20T04:47:00;95093.13;;;10.43;58.85
67545;BME280;54380;47.770;11.150;2023-03-20T04:49:31;95094.47;;;10.45;58.65
67545;BME280;54380;47.770;11.150;2023-03-20T04:51:58;95093.41;;;10.46;58.55
67545;BME280;54380;47.770;11.150;2023-03-20T04:54:35;95091.09;;;10.50;58.42
67545;BME280;54380;47.770;11.150;2023-03-20T04:57:02;95092.69;;;10.51;59.30
67545;BME280;54380;47.770;11.150;2023-03-20T04:59:29;95097.97;;;10.51;58.96
67545;BME280;54380;47.770;11.150;2023-03-20T05:01:58;95097.41;;;10.49;59.61
67545;BME280;54380;47.770;11.150;2023-03-20T05:04:26;95089.44;;;10.44;59.12
67545;BME280;54380;47.770;11.150;2023-03-20T05:06:53;95100.72;;;10.39;59.58
67545;BME280;54380;47.770;11.150;2023-03-20T05:09:23;95097.22;;;10.33;59.34
67545;BME280;54380;47.770;11.150;2023-03-20T05:11:51;95086.00;;;10.26;60.17
67545;BME280;54380;47.770;11.150;2023-03-20T05:14:37;95090.88;;;10.18;60.47
67545;BME280;54380;47.770;11.150;2023-03-20T05:17:21;95096.56;;;10.09;60.02
67545;BME280;54380;47.770;11.150;2023-03-20T05:20:08;95094.09;;;10.03;60.52
67545;BME280;54380;47.770;11.150;2023-03-20T05:22:49;95101.91;;;9.98;60.56
67545;BME280;54380;47.770;11.150;2023-03-20T05:25:41;95107.94;;;9.93;61.04
67545;BME280;54380;47.770;11.150;2023-03-20T05:28:27;95109.22;;;9.91;61.04
67545;BME280;54380;47.770;11.150;2023-03-20T05:31:20;95112.66;;;9.91;60.26
67545;BME280;54380;47.770;11.150;2023-03-20T05:33:58;95121.66;;;9.95;60.55
67545;BME280;54380;47.770;11.150;2023-03-20T05:36:46;95120.38;;;9.98;61.05
67545;BME280;54380;47.770;11.150;2023-03-20T05:39:23;95127.00;;;10.00;60.17
67545;BME280;54380;47.770;11.150;2023-03-20T05:42:03;95117.81;;;10.03;60.75
67545;BME280;54380;47.770;11.150;2023-03-20T05:44:30;95121.81;;;10.05;60.52
67545;BME280;54380;47.770;11.150;2023-03-20T05:47:13;95120.00;;;10.06;60.11
67545;BME280;54380;47.770;11.150;2023-03-20T05:49:53;95121.38;;;10.08;59.71
67545;BME280;54380;47.770;11.150;2023-03-20T05:52:26;95126.69;;;10.14;60.00
67545;BME280;54380;47.770;11.150;2023-03-20T05:55:17;95130.69;;;10.16;59.39
67545;BME280;54380;47.770;11.150;2023-03-20T05:57:54;95136.84;;;10.22;60.02
67545;BME280;54380;47.770;11.150;2023-03-20T06:00:44;95132.94;;;10.24;60.34
67545;BME280;54380;47.770;11.150;2023-03-20T06:03:31;95136.38;;;10.25;59.82
67545;BME280;54380;47.770;11.150;2023-03-20T06:06:08;95139.81;;;10.25;59.79
67545;BME280;54380;47.770;11.150;2023-03-20T06:08:35;95136.03;;;10.21;59.88
67545;BME280;54380;47.770;11.150;2023-03-20T06:11:05;95139.94;;;10.19;59.76
67545;BME280;54380;47.770;11.150;2023-03-20T06:13:36;95143.41;;;10.19;60.11
67545;BME280;54380;47.770;11.150;2023-03-20T06:16:03;95139.72;;;10.20;59.93
67545;BME280;54380;47.770;11.150;2023-03-20T06:18:32;95145.78;;;10.21;59.20
67545;BME280;54380;47.770;11.150;2023-03-20T06:20:58;95143.41;;;10.19;59.25
67545;BME280;54380;47.770;11.150;2023-03-20T06:23:29;95144.50;;;10.23;59.73
67545;BME280;54380;47.770;11.150;2023-03-20T06:25:58;95151.75;;;10.28;59.12
67545;BME280;54380;47.770;11.150;2023-03-20T06:28:26;95153.41;;;10.34;59.27
67545;BME280;54380;47.770;11.150;2023-03-20T06:31:00;95153.47;;;10.39;59.86
67545;BME280;54380;47.770;11.150;2023-03-20T06:33:28;95155.09;;;10.40;59.24
67545;BME280;54380;47.770;11.150;2023-03-20T06:35:58;95150.34;;;10.42;59.57
67545;BME280;54380;47.770;11.150;2023-03-20T06:38:29;95159.09;;;10.43;59.59
67545;BME280;54380;47.770;11.150;2023-03-20T06:40:57;95159.31;;;10.41;59.43
67545;BME280;54380;47.770;11.150;2023-03-20T06:43:24;95162.44;;;10.38;60.15
67545;BME280;54380;47.770;11.150;2023-03-20T06:45:52;95162.44;;;10.38;60.00
67545;BME280;54380;47.770;11.150;2023-03-20T06:48:21;95161.09;;;10.36;59.43
67545;BME280;54380;47.770;11.150;2023-03-20T06:50:50;95170.59;;;10.37;60.31
67545;BME280;54380;47.770;11.150;2023-03-20T06:53:20;95164.28;;;10.38;60.19
67545;BME280;54380;47.770;11.150;2023-03-20T06:56:05;95162.19;;;10.40;59.35
67545;BME280;54380;47.770;11.150;2023-03-20T06:58:33;95157.25;;;10.43;59.89
67545;BME280;54380;47.770;11.150;2023-03-20T07:01:00;95162.28;;;10.45;59.51
67545;BME280;54380;47.770;11.150;2023-03-20T07:03:27;95166.53;;;10.46;59.32
67545;BME280;54380;47.770;11.150;2023-03-20T07:05:56;95169.97;;;10.46;59.55
67545;BME280;54380;47.770;11.150;2023-03-20T07:08:23;95181.56;;;10.45;59.85
67545;BME280;54380;47.770;11.150;2023-03-20T07:10:50;95173.88;;;10.44;60.13
67545;BME280;54380;47.770;11.150;2023-03-20T07:13:19;95176.50;;;10.44;60.05
67545;BME280;54380;47.770;11.150;2023-03-20T07:15:46;95179.16;;;10.44;59.84
67545;BME280;54380;47.770;11.150;2023-03-20T07:18:31;95182.59;;;10.44;60.35
67545;BME280;54380;47.770;11.150;2023-03-20T07:21:00;95182.44;;;10.51;60.06
67545;BME280;54380;47.770;11.150;2023-03-20T07:23:29;95180.31;;;10.53;59.65
67545;BME280;54380;47.770;11.150;2023-03-20T07:25:56;95188.31;;;10.58;59.84
67545;BME280;54380;47.770;11.150;2023-03-20T07:28:25;95180.25;;;10.65;59.96
67545;BME280;54380;47.770;11.150;2023-03-20T07:31:05;95182.25;;;10.74;59.55
67545;BME280;54380;47.770;11.150;2023-03-20T07:33:32;95189.47;;;10.84;59.26
67545;BME280;54380;47.770;11.150;2023-03-20T07:35:59;95190.66;;;10.93;59.06
67545;BME280;54380;47.770;11.150;2023-03-20T07:38:27;95192.88;;;11.02;58.67
67545;BME280;54380;47.770;11.150;2023-03-20T07:41:04;95194.88;;;11.11;58.86
67545;BME280;54380;47.770;11.150;2023-03-20T20:39:48;95110.63;;;10.32;55.31
67545;BME280;54380;47.770;11.150;2023-03-20T20:42:16;95105.84;;;10.29;55.04
67545;BME280;54380;47.770;11.150;2023-03-20T20:44:43;95107.09;;;10.26;55.04
67545;BME280;54380;47.770;11.150;2023-03-20T20:47:10;95106.56;;;10.24;54.77
67545;BME280;54380;47.770;11.150;2023-03-20T20:49:39;95106.78;;;10.23;54.89
67545;BME280;54380;47.770;11.150;2023-03-20T20:52:07;95109.66;;;10.21;55.50
67545;BME280;54380;47.770;11.150;2023-03-20T20:54:35;95106.94;;;10.16;54.81
67545;BME280;54380;47.770;11.150;2023-03-20T20:57:04;95109.28;;;10.13;55.46
67545;BME280;54380;47.770;11.150;2023-03-20T20:59:31;95112.63;;;10.08;55.74
67545;BME280;54380;47.770;11.150;2023-03-20T21:01:58;95113.59;;;10.02;55.95
67545;BME280;54380;47.770;11.150;2023-03-20T21:04:25;95111.44;;;9.99;56.19
67545;BME280;54380;47.770;11.150;2023-03-20T21:06:51;95099.78;;;9.95;55.60
67545;BME280;54380;47.770;11.150;2023-03-20T21:09:37;95107.06;;;9.87;55.93
67545;BME280;54380;47.770;11.150;2023-03-20T21:12:06;95099.78;;;9.78;56.07
67545;BME280;54380;47.770;11.150;2023-03-20T21:14:34;95106.47;;;9.68;56.80
67545;BME280;54380;47.770;11.150;2023-03-20T21:17:01;95117.41;;;9.60;56.34
67545;BME280;54380;47.770;11.150;2023-03-20T21:19:28;95108.88;;;9.53;56.96
67545;BME280;54380;47.770;11.150;2023-03-20T21:21:56;95104.31;;;9.49;56.99
67545;BME280;54380;47.770;11.150;2023-03-20T21:24:23;95107.16;;;9.47;56.84
67545;BME280;54380;47.770;11.150;2023-03-20T21:27:00;95103.53;;;9.48;57.44
67545;BME280;54380;47.770;11.150;2023-03-20T21:29:29;95099.91;;;9.54;57.03
67545;BME280;54380;47.770;11.150;2023-03-20T21:31:56;95094.75;;;9.59;57.37
67545;BME280;54380;47.770;11.150;2023-03-20T21:34:23;95102.97;;;9.63;57.27
67545;BME280;54380;47.770;11.150;2023-03-20T21:36:51;95101.13;;;9.63;56.92
67545;BME280;54380;47.770;11.150;2023-03-20T21:39:18;95095.06;;;9.63;57.58
67545;BME280;54380;47.770;11.150;2023-03-20T21:41:45;95105.84;;;9.61;57.76
67545;BME280;54380;47.770;11.150;2023-03-20T21:44:12;95105.03;;;9.61;57.11
67545;BME280;54380;47.770;11.150;2023-03-20T21:46:46;95100.22;;;9.58;57.98
67545;BME280;54380;47.770;11.150;2023-03-20T21:49:33;95098.66;;;9.57;57.99
67545;BME280;54380;47.770;11.150;2023-03-20T21:52:20;95098.66;;;9.57;57.74
67545;BME280;54380;47.770;11.150;2023-03-20T21:55:07;95093.84;;;9.54;57.48
67545;BME280;54380;47.770;11.150;2023-03-20T21:57:56;95096.63;;;9.47;58.26
67545;BME280;54380;47.770;11.150;2023-03-20T22:00:43;95097.34;;;9.42;58.68
67545;BME280;54380;47.770;11.150;2023-03-20T22:03:31;95094.69;;;9.42;58.49
67545;BME280;54380;47.770;11.150;2023-03-20T22:06:18;95096.06;;;9.45;58.27
67545;BME280;54380;47.770;11.150;2023-03-20T22:09:07;95095.63;;;9.48;58.60
67545;BME280;54380;47.770;11.150;2023-03-20T22:11:54;95096.97;;;9.51;58.71
67545;BME280;54380;47.770;11.150;2023-03-20T22:14:40;95099.91;;;9.54;57.81
67545;BME280;54380;47.770;11.150;2023-03-20T22:17:28;95090.75;;;9.57;58.90
67545;BME280;54380;47.770;11.150;2023-03-20T22:20:17;95087.31;;;9.56;58.58
67545;BME280;54380;47.770;11.150;2023-03-20T22:23:04;95092.25;;;9.53;58.70
67545;BME280;54380;47.770;11.150;2023-03-20T22:25:54;95088.59;;;9.54;58.04
67545;BME280;54380;47.770;11.150;2023-03-20T22:28:41;95093.38;;;9.57;58.36
67545;BME280;54380;47.770;11.150;2023-03-20T22:31:28;95080.78;;;9.59;58.56
67545;BME280;54380;47.770;11.150;2023-03-20T22:34:15;95082.34;;;9.60;57.92
67545;BME280;54380;47.770;11.150;2023-03-20T22:37:03;95082.34;;;9.60;58.91
67545;BME280;54380;47.770;11.150;2023-03-20T22:39:49;95079.94;;;9.58;58.72
67545;BME280;54380;47.770;11.150;2023-03-20T22:42:36;95072.03;;;9.58;58.81
67545;BME280;54380;47.770;11.150;2023-03-20T22:45:23;95074.63;;;9.53;59.13
67545;BME280;54380;47.770;11.150;2023-03-20T22:47:54;95072.13;;;9.47;58.80
67545;BME280;54380;47.770;11.150;2023-03-20T22:50:21;95074.91;;;9.40;59.33
67545;BME280;54380;47.770;11.150;2023-03-20T22:52:50;95077.00;;;9.38;59.77
67545;BME280;54380;47.770;11.150;2023-03-20T22:55:19;95078.56;;;9.39;59.19
67545;BME280;54380;47.770;11.150;2023-03-20T22:57:47;95078.09;;;9.42;58.89
67545;BME280;54380;47.770;11.150;2023-03-20T23:00:32;95074.44;;;9.43;59.28
67545;BME280;54380;47.770;11.150;2023-03-20T23:02:58;95068.53;;;9.53;59.10
67545;BME280;54380;47.770;11.150;2023-03-20T23:05:43;95073.41;;;9.61;58.43
67545;BME280;54380;47.770;11.150;2023-03-20T23:08:12;95069.81;;;9.67;58.93
67545;BME280;54380;47.770;11.150;2023-03-20T23:10:41;95073.13;;;9.74;58.31
67545;BME280;54380;47.770;11.150;2023-03-20T23:13:08;95072.16;;;9.80;58.51
67545;BME280;54380;47.770;11.150;2023-03-20T23:15:35;95074.84;;;9.85;57.69
67545;BME280;54380;47.770;11.150;2023-03-20T23:18:02;95069.66;;;9.91;57.90
67545;BME280;54380;47.770;11.150;2023-03-20T23:20:28;95073.88;;;9.92;57.38
67545;BME280;54380;47.770;11.150;2023-03-20T23:22:55;95069.97;;;9.94;57.79
67545;BME280;54380;47.770;11.150;2023-03-20T23:25:23;95060.56;;;9.98;57.78
67545;BME280;54380;47.770;11.150;2023-03-20T23:28:04;95063.72;;;10.00;57.53
67545;BME280;54380;47.770;11.150;2023-03-20T23:30:31;95062.44;;;10.03;57.25
67545;BME280;54380;47.770;11.150;2023-03-20T23:33:09;95061.41;;;10.04;57.31
67545;BME280;54380;47.770;11.150;2023-03-20T23:35:36;95057.72;;;10.05;57.02
67545;BME280;54380;47.770;11.150;2023-03-20T23:38:03;95055.66;;;10.07;57.08
67545;BME280;54380;47.770;11.150;2023-03-20T23:40:31;95053.59;;;10.09;57.24
67545;BME280;54380;47.770;11.150;2023-03-20T23:42:58;95048.31;;;10.09;57.02
67545;BME280;54380;47.770;11.150;2023-03-20T23:45:25;95045.09;;;10.07;57.57
67545;BME280;54380;47.770;11.150;2023-03-20T23:47:52;95046.94;;;10.06;57.60
67545;BME280;54380;47.770;11.150;2023-03-20T23:50:20;95047.97;;;10.05;57.14
67545;BME280;54380;47.770;11.150;2023-03-20T23:53:02;95048.47;;;10.02;57.06
67545;BME280;54380;47.770;11.150;2023-03-20T23:55:47;95043.38;;;9.96;57.32
67545;BME280;54380;47.770;11.150;2023-03-20T23:58:14;95052.00;;;9.91;57.21
